createdAt,value
2022-10-05T00:02:52.341Z,7.88
2022-10-05T00:05:38.599Z,9.45
2022-10-05T00:08:24.718Z,8.60
2022-10-05T00:11:17.082Z,7.65
2022-10-05T00:13:44.946Z,7.80
2022-10-05T00:16:19.307Z,8.60
2022-10-05T00:18:51.760Z,8.70
2022-10-05T00:21:24.571Z,11.32
2022-10-05T00:24:00.633Z,11.48
2022-10-05T00:26:33.105Z,9.77
2022-10-05T00:29:02.463Z,12.27
2022-10-05T00:31:33.313Z,12.77
2022-10-05T00:34:05.916Z,8.15
2022-10-05T00:36:32.909Z,8.00
2022-10-05T00:39:03.279Z,10.20
2022-10-05T00:41:43.948Z,7.05
2022-10-05T00:44:46.897Z,7.68
2022-10-05T00:47:23.067Z,10.60
2022-10-05T00:50:25.362Z,8.20
2022-10-05T00:53:24.511Z,12.95
2022-10-05T00:55:59.168Z,10.68
2022-10-05T00:58:53.106Z,9.75
2022-10-05T01:01:33.238Z,10.10
2022-10-05T01:04:12.648Z,8.48
2022-10-05T01:07:04.235Z,12.93
2022-10-05T01:10:10.778Z,8.05
2022-10-05T01:15:51.528Z,12.50
2022-10-05T01:18:32.028Z,8.73
2022-10-05T01:21:21.084Z,11.32
2022-10-05T01:23:59.376Z,12.05
2022-10-05T01:26:43.366Z,7.72
2022-10-05T01:32:38.908Z,12.20
2022-10-05T01:35:21.350Z,8.88
2022-10-05T01:38:20.007Z,14.23
2022-10-05T01:41:11.423Z,12.73
2022-10-05T01:44:19.305Z,11.45
2022-10-05T01:46:49.632Z,12.88
2022-10-05T01:49:46.045Z,11.93
2022-10-05T01:52:21.564Z,10.65
2022-10-05T01:55:00.527Z,9.30
2022-10-05T01:57:45.581Z,13.57
2022-10-05T02:00:21.239Z,10.07
2022-10-05T02:02:57.074Z,7.35
2022-10-05T02:05:32.961Z,8.02
2022-10-05T02:08:08.164Z,8.10
2022-10-05T02:14:41.330Z,10.75
2022-10-05T02:17:17.267Z,8.35
2022-10-05T02:19:48.936Z,10.65
2022-10-05T02:22:32.609Z,12.13
2022-10-05T02:25:12.750Z,8.43
2022-10-05T02:27:58.640Z,15.35
2022-10-05T02:30:28.627Z,11.25
2022-10-05T02:33:09.311Z,9.43
2022-10-05T02:35:36.952Z,14.48
2022-10-05T02:38:38.032Z,12.25
2022-10-05T02:41:26.562Z,8.57
2022-10-05T02:44:00.985Z,12.88
2022-10-05T02:50:14.747Z,11.60
2022-10-05T02:53:06.368Z,10.25
2022-10-05T02:56:04.536Z,11.52
2022-10-05T02:59:00.638Z,8.65
2022-10-05T03:01:40.951Z,9.60
2022-10-05T03:04:26.817Z,9.65
2022-10-05T03:07:19.137Z,10.63
2022-10-05T03:10:01.628Z,13.48
2022-10-05T03:12:47.473Z,11.60
2022-10-05T03:15:23.499Z,11.05
2022-10-05T03:18:17.148Z,12.07
2022-10-05T03:20:53.480Z,15.45
2022-10-05T03:24:06.056Z,9.30
2022-10-05T03:26:46.554Z,6.07
2022-10-05T03:29:29.403Z,8.93
2022-10-05T03:32:38.432Z,13.18
2022-10-05T03:35:22.540Z,11.70
2022-10-05T03:38:04.695Z,10.38
2022-10-05T03:40:32.896Z,8.45
2022-10-05T03:43:26.472Z,10.38
2022-10-05T03:46:11.270Z,9.50
2022-10-05T03:48:55.458Z,12.10
2022-10-05T03:51:32.256Z,9.27
2022-10-05T03:54:33.943Z,10.93
2022-10-05T03:57:13.418Z,12.60
2022-10-05T04:00:17.745Z,10.50
2022-10-05T04:03:12.299Z,9.68
2022-10-05T04:05:55.664Z,13.20
2022-10-05T04:08:48.235Z,8.60
2022-10-05T04:14:55.129Z,11.15
2022-10-05T04:17:40.058Z,9.55
2022-10-05T04:20:24.976Z,9.70
2022-10-05T04:23:12.945Z,7.90
2022-10-05T04:25:48.828Z,10.63
2022-10-05T04:29:00.760Z,9.27
2022-10-05T04:31:52.315Z,9.48
2022-10-05T04:34:30.756Z,8.23
2022-10-05T04:37:04.582Z,11.57
2022-10-05T04:39:45.465Z,9.23
2022-10-05T04:42:32.888Z,9.07
2022-10-05T04:45:19.956Z,8.93
2022-10-05T04:48:15.239Z,12.70
2022-10-05T04:51:00.104Z,12.80
2022-10-05T04:53:48.761Z,10.77
2022-10-05T04:56:30.189Z,9.80
2022-10-05T04:59:24.868Z,10.68
2022-10-05T05:01:59.889Z,11.50
2022-10-05T05:07:50.133Z,12.48
2022-10-05T05:10:57.776Z,14.07
2022-10-05T05:14:15.450Z,11.35
2022-10-05T05:16:45.739Z,12.95
2022-10-05T05:19:33.913Z,11.77
2022-10-05T05:28:09.809Z,15.45
2022-10-05T05:30:58.714Z,11.10
2022-10-05T05:34:02.954Z,7.72
2022-10-05T05:36:46.694Z,12.52
2022-10-05T05:39:31.431Z,12.55
2022-10-05T05:42:10.099Z,19.17
2022-10-05T05:44:50.904Z,12.50
2022-10-05T05:47:37.680Z,11.52
2022-10-05T05:53:27.236Z,12.02
2022-10-05T05:56:23.983Z,11.57
2022-10-05T05:59:20.008Z,12.68
2022-10-05T06:01:52.729Z,9.23
2022-10-05T06:04:41.349Z,10.55
2022-10-05T06:07:16.315Z,15.32
2022-10-05T06:09:49.921Z,11.25
2022-10-05T06:12:31.770Z,9.60
2022-10-05T06:15:13.934Z,15.70
2022-10-05T06:17:55.844Z,12.70
2022-10-05T06:20:48.940Z,15.10
2022-10-05T06:23:51.153Z,15.85
2022-10-05T06:26:28.532Z,12.95
2022-10-05T06:29:25.036Z,14.18
2022-10-05T06:32:05.880Z,11.68
2022-10-05T06:35:02.779Z,11.85
2022-10-05T06:37:54.982Z,12.73
2022-10-05T06:40:32.192Z,14.88
2022-10-05T06:43:17.018Z,12.32
2022-10-05T06:46:09.286Z,10.63
2022-10-05T06:49:03.943Z,10.45
2022-10-05T06:52:28.726Z,10.43
2022-10-05T06:55:19.847Z,16.58
2022-10-05T06:58:14.955Z,9.38
2022-10-05T07:00:58.446Z,12.77
2022-10-05T07:03:46.534Z,12.65
2022-10-05T07:06:24.094Z,15.65
2022-10-05T07:09:06.439Z,12.63
2022-10-05T07:11:51.302Z,14.82
2022-10-05T07:14:47.223Z,14.27
2022-10-05T07:17:34.560Z,11.23
2022-10-05T07:20:29.012Z,13.68
2022-10-05T07:23:09.557Z,14.85
2022-10-05T07:25:59.794Z,11.60
2022-10-05T07:28:47.110Z,11.95
2022-10-05T07:31:34.208Z,11.75
2022-10-05T07:34:09.742Z,13.65
2022-10-05T07:37:26.154Z,11.55
2022-10-05T07:40:18.041Z,12.13
2022-10-05T07:43:03.856Z,13.15
2022-10-05T07:46:00.875Z,13.75
2022-10-05T07:48:55.635Z,17.65
2022-10-05T07:51:34.946Z,11.95
2022-10-05T07:54:33.179Z,14.68
2022-10-05T07:57:14.765Z,13.45
2022-10-05T07:59:51.941Z,16.73
2022-10-05T08:02:57.285Z,9.95
2022-10-05T08:06:03.356Z,14.25
2022-10-05T08:08:39.740Z,11.13
2022-10-05T08:11:12.692Z,13.43
2022-10-05T08:13:49.716Z,9.80
2022-10-05T08:16:18.014Z,11.10
2022-10-05T08:19:08.391Z,16.95
2022-10-05T08:21:54.141Z,13.90
2022-10-05T08:25:00.218Z,11.60
2022-10-05T08:27:38.490Z,10.45
2022-10-05T08:30:13.293Z,9.32
2022-10-05T08:33:04.014Z,11.50
2022-10-05T08:35:47.303Z,9.45
2022-10-05T08:38:24.724Z,14.43
2022-10-05T08:41:26.612Z,11.20
2022-10-05T08:48:08.768Z,10.48
2022-10-05T08:50:56.765Z,8.70
2022-10-05T08:53:32.645Z,8.57
2022-10-05T08:56:30.529Z,9.43
2022-10-05T08:59:15.461Z,13.93
2022-10-05T09:02:18.393Z,10.35
2022-10-05T09:04:58.147Z,8.75
2022-10-05T09:07:41.982Z,14.02
2022-10-05T09:18:53.501Z,12.18
2022-10-05T09:22:01.488Z,9.25
2022-10-05T09:24:49.123Z,11.57
2022-10-05T09:27:19.034Z,8.73
2022-10-05T09:30:13.574Z,12.02
2022-10-05T09:33:07.707Z,9.80
2022-10-05T09:36:04.167Z,7.68
2022-10-05T09:38:57.492Z,10.02
2022-10-05T09:45:11.507Z,10.13
2022-10-05T09:48:03.970Z,10.60
2022-10-05T09:51:01.927Z,10.65
2022-10-05T09:53:41.289Z,8.77
2022-10-05T09:56:21.200Z,9.77
2022-10-05T09:59:07.380Z,8.98
2022-10-05T10:02:21.000Z,9.95
2022-10-05T10:05:26.781Z,14.23
2022-10-05T10:12:02.514Z,12.48
2022-10-05T10:14:45.548Z,9.50
2022-10-05T10:17:31.369Z,10.48
2022-10-05T10:20:26.201Z,8.60
2022-10-05T10:23:37.866Z,9.40
2022-10-05T10:26:48.528Z,10.90
2022-10-05T10:29:30.850Z,9.30
2022-10-05T10:32:28.820Z,10.00
2022-10-05T10:35:25.659Z,8.50
2022-10-05T10:37:52.820Z,7.95
2022-10-05T10:40:49.420Z,8.50
2022-10-05T10:43:30.053Z,7.60
2022-10-05T10:46:09.910Z,8.85
2022-10-05T10:48:54.476Z,10.43
2022-10-05T10:51:47.855Z,9.40
2022-10-05T10:54:27.051Z,9.27
2022-10-05T10:57:06.098Z,9.45
2022-10-05T10:59:32.855Z,13.18
2022-10-05T11:02:30.581Z,7.03
2022-10-05T11:05:23.289Z,6.43
2022-10-05T11:11:46.915Z,9.20
2022-10-05T11:14:34.488Z,9.05
2022-10-05T11:17:44.169Z,7.30
2022-10-05T11:20:32.033Z,10.65
2022-10-05T11:23:45.582Z,11.68
2022-10-05T11:26:49.296Z,9.45
2022-10-05T11:29:46.283Z,8.73
2022-10-05T11:33:02.744Z,7.85
2022-10-05T11:36:03.107Z,7.13
2022-10-05T11:38:59.484Z,9.07
2022-10-05T11:41:36.728Z,10.23
2022-10-05T11:44:47.997Z,10.80
2022-10-05T11:47:21.526Z,6.68
2022-10-05T11:49:57.336Z,8.73
2022-10-05T11:52:30.617Z,12.27
2022-10-05T11:55:35.057Z,10.38
2022-10-05T11:58:13.271Z,6.82
2022-10-05T12:00:46.332Z,10.15
2022-10-05T12:03:41.152Z,7.65
2022-10-05T12:06:11.866Z,8.00
2022-10-05T12:09:04.898Z,5.97
2022-10-05T12:11:56.997Z,9.20
2022-10-05T12:17:46.295Z,6.15
2022-10-05T12:20:46.410Z,6.13
2022-10-05T12:23:34.864Z,6.38
2022-10-05T12:26:05.377Z,5.32
2022-10-05T12:29:17.217Z,6.38
2022-10-05T12:31:50.158Z,7.65
2022-10-05T12:34:22.935Z,5.45
2022-10-05T12:37:04.116Z,6.78
2022-10-05T12:39:35.857Z,7.63
2022-10-05T12:42:40.847Z,6.70
2022-10-05T12:45:11.947Z,5.18
2022-10-05T12:48:00.464Z,8.32
2022-10-05T12:50:36.752Z,5.47
2022-10-05T12:53:14.913Z,7.22
2022-10-05T12:55:59.444Z,4.05
2022-10-05T12:58:57.101Z,7.22
2022-10-05T13:01:52.886Z,4.50
2022-10-05T13:04:57.001Z,6.50
2022-10-05T13:07:41.033Z,6.25
2022-10-05T13:10:12.070Z,6.45
2022-10-05T13:13:15.948Z,5.28
2022-10-05T13:16:04.733Z,4.68
2022-10-05T13:18:52.614Z,8.77
2022-10-05T13:21:33.638Z,6.63
2022-10-05T13:24:12.546Z,4.97
2022-10-05T13:26:46.189Z,5.28
2022-10-05T13:29:33.068Z,7.78
2022-10-05T13:32:24.238Z,6.25
2022-10-05T13:38:36.837Z,5.78
2022-10-05T13:41:27.494Z,8.68
2022-10-05T13:44:20.929Z,5.38
2022-10-05T13:47:06.073Z,4.65
2022-10-05T13:49:59.791Z,5.18
2022-10-05T13:53:15.259Z,5.05
2022-10-05T13:56:00.612Z,5.93
2022-10-05T13:58:56.019Z,4.82
2022-10-05T14:01:41.662Z,5.45
2022-10-05T14:04:18.126Z,5.47
2022-10-05T14:06:45.526Z,5.10
2022-10-05T14:09:34.258Z,5.50
2022-10-05T14:12:03.967Z,5.75
2022-10-05T14:14:45.184Z,7.13
2022-10-05T14:17:32.146Z,6.28
2022-10-05T14:22:59.316Z,7.20
2022-10-05T14:28:29.596Z,6.00
2022-10-05T14:31:03.467Z,6.57
2022-10-05T14:33:36.161Z,5.40
2022-10-05T14:36:36.321Z,5.65
2022-10-05T14:39:13.226Z,6.03
2022-10-05T14:44:41.548Z,6.85
2022-10-05T14:47:22.701Z,8.30
2022-10-05T14:50:15.485Z,9.40
2022-10-05T14:53:00.494Z,5.35
2022-10-05T14:55:56.994Z,7.30
2022-10-05T14:59:14.988Z,5.07
2022-10-05T15:02:35.461Z,6.57
2022-10-05T15:05:17.026Z,6.38
2022-10-05T15:07:49.228Z,5.40
2022-10-05T15:10:40.580Z,5.93
2022-10-05T15:13:25.588Z,5.63
2022-10-05T15:15:59.869Z,5.15
2022-10-05T15:18:57.237Z,5.25
2022-10-05T15:21:46.184Z,5.60
2022-10-05T15:24:47.481Z,6.93
2022-10-05T15:27:56.207Z,6.60
2022-10-05T15:30:24.462Z,4.22
2022-10-05T15:33:09.168Z,7.05
2022-10-05T15:35:42.778Z,6.93
2022-10-05T15:38:25.719Z,7.45
2022-10-05T15:41:06.901Z,5.57
2022-10-05T15:46:56.455Z,7.28
2022-10-05T15:49:27.878Z,7.93
2022-10-05T15:52:29.601Z,5.32
2022-10-05T15:58:46.988Z,6.50
2022-10-05T16:01:21.259Z,5.10
2022-10-05T16:03:54.219Z,9.38
2022-10-05T16:07:03.467Z,5.63
2022-10-05T16:09:54.076Z,3.88
2022-10-05T16:12:29.884Z,6.43
2022-10-05T16:15:08.769Z,6.43
2022-10-05T16:18:12.205Z,4.65
2022-10-05T16:20:51.105Z,9.57
2022-10-05T16:24:09.491Z,12.38
2022-10-05T16:26:57.177Z,4.05
2022-10-05T16:29:37.663Z,7.68
2022-10-05T16:32:24.034Z,4.50
2022-10-05T16:35:16.657Z,6.85
2022-10-05T16:37:56.511Z,4.32
2022-10-05T16:40:36.995Z,4.30
2022-10-05T16:43:14.032Z,5.15
2022-10-05T16:46:02.600Z,3.95
2022-10-05T16:48:50.183Z,5.20
2022-10-05T16:51:17.036Z,4.82
2022-10-05T16:54:01.150Z,6.82
2022-10-05T16:57:03.788Z,11.10
2022-10-05T17:00:01.681Z,8.93
2022-10-05T17:02:36.866Z,12.30
2022-10-05T17:05:36.500Z,7.13
2022-10-05T17:08:18.007Z,8.75
2022-10-05T17:10:56.881Z,7.40
2022-10-05T17:13:37.381Z,6.50
2022-10-05T17:16:36.491Z,9.15
2022-10-05T17:25:45.749Z,5.03
2022-10-05T17:28:41.572Z,5.75
2022-10-05T17:34:36.604Z,9.68
2022-10-05T17:37:26.992Z,4.88
2022-10-05T17:39:59.123Z,8.25
2022-10-05T17:42:28.653Z,6.93
2022-10-05T17:45:20.406Z,9.07
2022-10-05T17:48:01.454Z,8.50
2022-10-05T17:54:07.271Z,5.00
2022-10-05T17:56:46.743Z,4.85
2022-10-05T17:59:44.812Z,6.60
2022-10-05T18:02:23.237Z,5.75
2022-10-05T18:05:02.633Z,4.35
2022-10-05T18:07:41.255Z,5.03
2022-10-05T18:10:11.788Z,4.68
2022-10-05T18:12:50.021Z,5.78
2022-10-05T18:15:25.744Z,6.30
2022-10-05T18:18:02.284Z,6.15
2022-10-05T18:20:34.898Z,6.93
2022-10-05T18:23:02.833Z,5.90
2022-10-05T18:25:45.099Z,5.32
2022-10-05T18:28:35.891Z,5.07
2022-10-05T18:34:31.230Z,4.20
2022-10-05T18:37:14.823Z,7.10
2022-10-05T18:40:24.265Z,5.18
2022-10-05T18:46:32.243Z,8.73
2022-10-05T18:48:58.957Z,4.70
2022-10-05T18:51:57.908Z,4.53
2022-10-05T18:54:37.093Z,4.90
2022-10-05T19:00:51.289Z,6.13
2022-10-05T19:03:32.555Z,8.02
2022-10-05T19:06:24.503Z,5.35
2022-10-05T19:09:25.112Z,7.93
2022-10-05T19:12:14.944Z,5.65
2022-10-05T19:14:56.396Z,7.40
2022-10-05T19:17:31.915Z,6.70
2022-10-05T19:20:21.195Z,5.13
2022-10-05T19:23:00.739Z,5.57
2022-10-05T19:25:36.766Z,4.47
2022-10-05T19:28:17.284Z,5.20
2022-10-05T19:30:56.882Z,7.10
2022-10-05T19:33:56.497Z,4.50
2022-10-05T19:36:45.458Z,4.68
2022-10-05T19:39:36.066Z,5.38
2022-10-05T19:45:26.034Z,4.55
2022-10-05T19:48:15.298Z,5.25
2022-10-05T19:51:03.178Z,6.45
2022-10-05T19:53:38.616Z,4.18
2022-10-05T19:56:22.493Z,6.22
2022-10-05T19:59:02.279Z,5.20
2022-10-05T20:01:40.656Z,5.32
2022-10-05T20:04:38.629Z,5.93
2022-10-05T20:07:15.649Z,4.47
2022-10-05T20:10:31.963Z,5.95
2022-10-05T20:16:46.983Z,5.75
2022-10-05T20:19:59.356Z,6.72
2022-10-05T20:22:37.999Z,9.48
2022-10-05T20:25:19.801Z,5.03
2022-10-05T20:27:52.272Z,5.40
2022-10-05T20:30:30.773Z,6.95
2022-10-05T20:33:04.654Z,4.47
2022-10-05T20:35:32.880Z,5.55
2022-10-05T20:38:00.945Z,4.32
2022-10-05T20:40:30.235Z,5.68
2022-10-05T20:42:58.213Z,4.20
2022-10-05T20:45:25.036Z,7.75
2022-10-05T20:47:52.829Z,5.60
2022-10-05T20:50:27.503Z,5.05
2022-10-05T20:52:54.808Z,4.60
2022-10-05T20:55:22.890Z,4.70
2022-10-05T20:57:51.182Z,5.20
2022-10-05T21:00:18.865Z,5.40
2022-10-05T21:02:46.923Z,3.90
2022-10-05T21:05:20.506Z,4.63
2022-10-05T21:07:48.752Z,4.07
2022-10-05T21:10:17.094Z,3.92
2022-10-05T21:12:44.750Z,7.97
2022-10-05T21:15:12.805Z,6.07
2022-10-05T21:17:40.785Z,6.13
2022-10-05T21:20:33.018Z,7.00
2022-10-05T21:23:26.665Z,3.83
2022-10-05T21:25:59.871Z,5.88
2022-10-05T21:28:27.568Z,8.82
2022-10-05T21:30:55.161Z,4.30
2022-10-05T21:33:22.844Z,4.88
2022-10-05T21:38:42.780Z,7.07
2022-10-05T21:41:10.827Z,5.22
2022-10-05T21:43:39.874Z,7.10
2022-10-05T21:46:07.986Z,3.60
2022-10-05T21:48:37.471Z,8.00
2022-10-05T21:51:13.820Z,5.15
2022-10-05T21:53:48.719Z,6.03
2022-10-05T21:59:13.373Z,8.13
2022-10-05T22:01:46.949Z,5.13
2022-10-05T22:04:15.092Z,4.13
2022-10-05T22:07:18.524Z,6.97
2022-10-05T22:09:53.242Z,7.50
2022-10-05T22:12:21.278Z,6.53
2022-10-05T22:14:49.602Z,6.35
2022-10-05T22:17:28.402Z,4.80
2022-10-05T22:19:58.758Z,4.35
2022-10-05T22:22:33.101Z,6.38
2022-10-05T22:25:06.361Z,5.33
2022-10-05T22:27:35.755Z,4.22
2022-10-05T22:30:03.932Z,5.25
2022-10-05T22:32:30.863Z,9.40
2022-10-05T22:34:58.866Z,4.50
2022-10-05T22:37:50.857Z,6.55
2022-10-05T22:40:18.872Z,4.07
2022-10-05T22:42:46.942Z,6.53
2022-10-05T22:45:14.867Z,4.07
2022-10-05T22:47:43.004Z,5.07
2022-10-05T22:50:10.941Z,4.18
2022-10-05T22:53:03.902Z,5.60
2022-10-05T22:55:30.875Z,6.55
2022-10-05T22:57:58.821Z,3.95
